sensor_id;sensor_type;location;lat;lon;timestamp;temperature;humidity
53294;DHT22;39181;53.440;5.644;2022-12-10T00:02:11;1.30;99.90
53294;DHT22;39181;53.440;5.644;2022-12-10T00:04:36;1.30;99.90
53294;DHT22;39181;53.440;5.644;2022-12-10T00:07:02;1.30;99.90
53294;DHT22;39181;53.440;5.644;2022-12-10T00:09:27;1.30;99.90
53294;DHT22;39181;53.440;5.644;2022-12-10T00:11:53;1.30;99.90
53294;DHT22;39181;53.440;5.644;2022-12-10T00:14:19;1.30;99.90
53294;DHT22;39181;53.440;5.644;2022-12-10T00:16:44;1.30;99.90
53294;DHT22;39181;53.440;5.644;2022-12-10T00:19:10;1.40;99.90
53294;DHT22;39181;53.440;5.644;2022-12-10T00:21:36;1.40;99.90
53294;DHT22;39181;53.440;5.644;2022-12-10T00:24:03;1.30;99.90
53294;DHT22;39181;53.440;5.644;2022-12-10T00:26:36;1.40;99.90
53294;DHT22;39181;53.440;5.644;2022-12-10T00:29:03;1.40;99.90
53294;DHT22;39181;53.440;5.644;2022-12-10T00:31:32;1.40;99.90
53294;DHT22;39181;53.440;5.644;2022-12-10T00:34:00;1.40;99.90
53294;DHT22;39181;53.440;5.644;2022-12-10T00:36:28;1.30;99.90
53294;DHT22;39181;53.440;5.644;2022-12-10T00:38:54;1.30;99.90
53294;DHT22;39181;53.440;5.644;2022-12-10T00:41:20;1.40;99.90
53294;DHT22;39181;53.440;5.644;2022-12-10T00:43:46;1.40;99.90
53294;DHT22;39181;53.440;5.644;2022-12-10T00:46:13;1.40;99.90
53294;DHT22;39181;53.440;5.644;2022-12-10T00:48:39;1.40;99.90
53294;DHT22;39181;53.440;5.644;2022-12-10T00:51:10;1.40;99.90
53294;DHT22;39181;53.440;5.644;2022-12-10T00:53:37;1.40;99.90
53294;DHT22;39181;53.440;5.644;2022-12-10T00:56:04;1.50;99.90
53294;DHT22;39181;53.440;5.644;2022-12-10T00:58:31;1.50;99.90
53294;DHT22;39181;53.440;5.644;2022-12-10T01:01:16;1.40;99.90
53294;DHT22;39181;53.440;5.644;2022-12-10T01:03:43;1.50;99.90
53294;DHT22;39181;53.440;5.644;2022-12-10T01:06:15;1.40;99.90
53294;DHT22;39181;53.440;5.644;2022-12-10T01:08:41;1.50;99.90
53294;DHT22;39181;53.440;5.644;2022-12-10T01:11:08;1.40;99.90
53294;DHT22;39181;53.440;5.644;2022-12-10T01:13:34;1.50;99.90
53294;DHT22;39181;53.440;5.644;2022-12-10T01:16:02;1.50;99.90
53294;DHT22;39181;53.440;5.644;2022-12-10T01:18:28;1.40;99.90
53294;DHT22;39181;53.440;5.644;2022-12-10T01:20:54;1.50;99.90
53294;DHT22;39181;53.440;5.644;2022-12-10T01:23:19;1.50;99.90
53294;DHT22;39181;53.440;5.644;2022-12-10T01:25:45;1.40;99.90
53294;DHT22;39181;53.440;5.644;2022-12-10T01:28:11;1.50;99.90
53294;DHT22;39181;53.440;5.644;2022-12-10T01:30:36;1.40;99.90
53294;DHT22;39181;53.440;5.644;2022-12-10T01:33:02;1.50;99.90
53294;DHT22;39181;53.440;5.644;2022-12-10T01:35:28;1.50;99.90
53294;DHT22;39181;53.440;5.644;2022-12-10T01:37:53;1.40;99.90
53294;DHT22;39181;53.440;5.644;2022-12-10T01:40:19;1.50;99.90
53294;DHT22;39181;53.440;5.644;2022-12-10T01:42:44;1.50;99.90
53294;DHT22;39181;53.440;5.644;2022-12-10T01:45:12;1.50;99.90
53294;DHT22;39181;53.440;5.644;2022-12-10T01:47:37;1.50;99.90
53294;DHT22;39181;53.440;5.644;2022-12-10T01:50:05;1.50;99.90
53294;DHT22;39181;53.440;5.644;2022-12-10T01:52:34;1.50;99.90
53294;DHT22;39181;53.440;5.644;2022-12-10T01:55:00;1.50;99.90
53294;DHT22;39181;53.440;5.644;2022-12-10T01:57:27;1.40;99.90
53294;DHT22;39181;53.440;5.644;2022-12-10T02:00:02;1.50;99.90
53294;DHT22;39181;53.440;5.644;2022-12-10T02:02:56;1.50;99.90
53294;DHT22;39181;53.440;5.644;2022-12-10T02:05:44;1.40;99.90
53294;DHT22;39181;53.440;5.644;2022-12-10T02:08:26;1.40;99.90
53294;DHT22;39181;53.440;5.644;2022-12-10T02:18:54;1.40;99.90
53294;DHT22;39181;53.440;5.644;2022-12-10T02:21:26;1.40;99.90
53294;DHT22;39181;53.440;5.644;2022-12-10T02:24:00;1.40;99.90
53294;DHT22;39181;53.440;5.644;2022-12-10T02:29:34;1.40;99.90
53294;DHT22;39181;53.440;5.644;2022-12-10T02:32:11;1.40;99.90
53294;DHT22;39181;53.440;5.644;2022-12-10T02:34:42;1.40;99.90
53294;DHT22;39181;53.440;5.644;2022-12-10T02:37:31;1.30;99.90
53294;DHT22;39181;53.440;5.644;2022-12-10T02:40:03;1.20;99.90
53294;DHT22;39181;53.440;5.644;2022-12-10T02:42:31;1.10;99.90
53294;DHT22;39181;53.440;5.644;2022-12-10T02:44:59;1.20;99.90
53294;DHT22;39181;53.440;5.644;2022-12-10T02:47:26;1.20;99.90
53294;DHT22;39181;53.440;5.644;2022-12-10T02:49:53;1.20;99.90
53294;DHT22;39181;53.440;5.644;2022-12-10T02:52:23;1.20;99.90
53294;DHT22;39181;53.440;5.644;2022-12-10T02:54:50;1.20;99.90
53294;DHT22;39181;53.440;5.644;2022-12-10T02:57:45;1.30;99.90
53294;DHT22;39181;53.440;5.644;2022-12-10T03:00:21;1.30;99.90
53294;DHT22;39181;53.440;5.644;2022-12-10T03:02:56;1.20;99.90
53294;DHT22;39181;53.440;5.644;2022-12-10T03:05:46;1.30;99.90
53294;DHT22;39181;53.440;5.644;2022-12-10T03:08:38;1.30;99.90
53294;DHT22;39181;53.440;5.644;2022-12-10T03:13:57;1.40;99.90
53294;DHT22;39181;53.440;5.644;2022-12-10T03:16:24;1.40;99.90
53294;DHT22;39181;53.440;5.644;2022-12-10T03:18:56;1.40;99.90
53294;DHT22;39181;53.440;5.644;2022-12-10T03:21:22;1.50;99.90
53294;DHT22;39181;53.440;5.644;2022-12-10T03:23:50;1.50;99.90
53294;DHT22;39181;53.440;5.644;2022-12-10T03:26:17;1.40;99.90
53294;DHT22;39181;53.440;5.644;2022-12-10T03:28:52;1.50;99.90
53294;DHT22;39181;53.440;5.644;2022-12-10T03:31:20;1.50;99.90
53294;DHT22;39181;53.440;5.644;2022-12-10T03:33:47;1.40;99.90
53294;DHT22;39181;53.440;5.644;2022-12-10T03:36:14;1.50;99.90
53294;DHT22;39181;53.440;5.644;2022-12-10T03:38:41;1.50;99.90
53294;DHT22;39181;53.440;5.644;2022-12-10T03:41:07;1.40;99.90
53294;DHT22;39181;53.440;5.644;2022-12-10T03:43:33;1.40;99.90
53294;DHT22;39181;53.440;5.644;2022-12-10T03:45:58;1.40;99.90
53294;DHT22;39181;53.440;5.644;2022-12-10T03:48:24;1.70;99.90
53294;DHT22;39181;53.440;5.644;2022-12-10T03:50:50;1.40;99.90
53294;DHT22;39181;53.440;5.644;2022-12-10T03:53:15;1.40;99.90
53294;DHT22;39181;53.440;5.644;2022-12-10T03:55:41;1.40;99.90
53294;DHT22;39181;53.440;5.644;2022-12-10T03:58:07;1.30;99.90
53294;DHT22;39181;53.440;5.644;2022-12-10T04:00:32;1.40;99.90
53294;DHT22;39181;53.440;5.644;2022-12-10T04:02:58;1.40;99.90
53294;DHT22;39181;53.440;5.644;2022-12-10T04:05:23;1.40;99.90
53294;DHT22;39181;53.440;5.644;2022-12-10T04:07:49;1.30;99.90
53294;DHT22;39181;53.440;5.644;2022-12-10T04:10:15;1.30;99.90
53294;DHT22;39181;53.440;5.644;2022-12-10T04:12:40;1.40;99.90
53294;DHT22;39181;53.440;5.644;2022-12-10T04:15:06;1.40;99.90
53294;DHT22;39181;53.440;5.644;2022-12-10T04:17:51;1.40;99.90
53294;DHT22;39181;53.440;5.644;2022-12-10T04:20:18;1.30;99.90
53294;DHT22;39181;53.440;5.644;2022-12-10T04:23:02;1.40;99.90
53294;DHT22;39181;53.440;5.644;2022-12-10T04:25:46;1.40;99.90
53294;DHT22;39181;53.440;5.644;2022-12-10T04:28:30;1.40;99.90
53294;DHT22;39181;53.440;5.644;2022-12-10T04:30:56;1.30;99.90
53294;DHT22;39181;53.440;5.644;2022-12-10T04:33:21;1.30;99.90
53294;DHT22;39181;53.440;5.644;2022-12-10T04:35:47;1.30;99.90
53294;DHT22;39181;53.440;5.644;2022-12-10T04:38:13;1.40;99.90
53294;DHT22;39181;53.440;5.644;2022-12-10T04:40:38;1.40;99.90
53294;DHT22;39181;53.440;5.644;2022-12-10T04:43:04;1.30;99.90
53294;DHT22;39181;53.440;5.644;2022-12-10T04:45:30;1.50;99.90
53294;DHT22;39181;53.440;5.644;2022-12-10T04:47:55;1.40;99.90
53294;DHT22;39181;53.440;5.644;2022-12-10T04:50:21;1.30;99.90
53294;DHT22;39181;53.440;5.644;2022-12-10T04:52:46;1.30;99.90
53294;DHT22;39181;53.440;5.644;2022-12-10T04:55:12;1.30;99.90
53294;DHT22;39181;53.440;5.644;2022-12-10T04:57:37;1.30;99.90
53294;DHT22;39181;53.440;5.644;2022-12-10T05:00:03;1.30;99.90
53294;DHT22;39181;53.440;5.644;2022-12-10T05:02:29;1.30;99.90
53294;DHT22;39181;53.440;5.644;2022-12-10T05:04:54;1.30;99.90
53294;DHT22;39181;53.440;5.644;2022-12-10T05:07:20;1.30;99.90
53294;DHT22;39181;53.440;5.644;2022-12-10T05:09:46;1.40;99.90
53294;DHT22;39181;53.440;5.644;2022-12-10T05:12:11;1.30;99.90
53294;DHT22;39181;53.440;5.644;2022-12-10T05:14:37;1.40;99.90
53294;DHT22;39181;53.440;5.644;2022-12-10T05:17:03;1.30;99.90
53294;DHT22;39181;53.440;5.644;2022-12-10T05:19:28;1.40;99.90
53294;DHT22;39181;53.440;5.644;2022-12-10T05:21:54;1.30;99.90
53294;DHT22;39181;53.440;5.644;2022-12-10T05:24:38;1.30;99.90
53294;DHT22;39181;53.440;5.644;2022-12-10T05:27:04;1.30;99.90
53294;DHT22;39181;53.440;5.644;2022-12-10T05:29:32;1.30;99.90
53294;DHT22;39181;53.440;5.644;2022-12-10T05:31:58;1.30;99.90
53294;DHT22;39181;53.440;5.644;2022-12-10T05:34:23;1.30;99.90
53294;DHT22;39181;53.440;5.644;2022-12-10T05:36:49;1.30;99.90
53294;DHT22;39181;53.440;5.644;2022-12-10T05:39:15;1.30;99.90
53294;DHT22;39181;53.440;5.644;2022-12-10T05:41:41;1.30;99.90
53294;DHT22;39181;53.440;5.644;2022-12-10T05:44:07;1.30;99.90
53294;DHT22;39181;53.440;5.644;2022-12-10T05:46:34;1.20;99.90
53294;DHT22;39181;53.440;5.644;2022-12-10T05:49:01;1.20;99.90
53294;DHT22;39181;53.440;5.644;2022-12-10T05:51:30;1.10;99.90
53294;DHT22;39181;53.440;5.644;2022-12-10T05:53:58;1.10;99.90
53294;DHT22;39181;53.440;5.644;2022-12-10T05:56:24;1.10;99.90
53294;DHT22;39181;53.440;5.644;2022-12-10T05:58:53;1.10;99.90
53294;DHT22;39181;53.440;5.644;2022-12-10T06:01:23;1.10;99.90
53294;DHT22;39181;53.440;5.644;2022-12-10T06:03:49;1.10;99.90
53294;DHT22;39181;53.440;5.644;2022-12-10T06:06:22;1.10;99.90
53294;DHT22;39181;53.440;5.644;2022-12-10T06:08:48;1.10;99.90
53294;DHT22;39181;53.440;5.644;2022-12-10T06:11:14;1.00;99.90
53294;DHT22;39181;53.440;5.644;2022-12-10T06:13:40;1.00;99.90
53294;DHT22;39181;53.440;5.644;2022-12-10T06:16:08;1.10;99.90
53294;DHT22;39181;53.440;5.644;2022-12-10T06:18:34;1.10;99.90
53294;DHT22;39181;53.440;5.644;2022-12-10T06:21:09;1.00;99.90
53294;DHT22;39181;53.440;5.644;2022-12-10T06:23:36;1.10;99.90
53294;DHT22;39181;53.440;5.644;2022-12-10T06:26:06;1.10;99.90
53294;DHT22;39181;53.440;5.644;2022-12-10T06:28:32;1.10;99.90
53294;DHT22;39181;53.440;5.644;2022-12-10T06:30:58;1.10;99.90
53294;DHT22;39181;53.440;5.644;2022-12-10T06:33:24;1.10;99.90
53294;DHT22;39181;53.440;5.644;2022-12-10T06:35:50;1.00;99.90
53294;DHT22;39181;53.440;5.644;2022-12-10T06:38:15;1.10;99.90
53294;DHT22;39181;53.440;5.644;2022-12-10T06:40:41;1.10;99.90
53294;DHT22;39181;53.440;5.644;2022-12-10T06:43:07;1.10;99.90
53294;DHT22;39181;53.440;5.644;2022-12-10T06:45:32;1.00;99.90
53294;DHT22;39181;53.440;5.644;2022-12-10T06:47:58;1.00;99.90
53294;DHT22;39181;53.440;5.644;2022-12-10T06:50:23;1.00;99.90
53294;DHT22;39181;53.440;5.644;2022-12-10T06:52:50;1.10;99.90
53294;DHT22;39181;53.440;5.644;2022-12-10T06:55:16;1.00;99.90
53294;DHT22;39181;53.440;5.644;2022-12-10T06:57:42;1.00;99.90
53294;DHT22;39181;53.440;5.644;2022-12-10T07:00:08;1.10;99.90
53294;DHT22;39181;53.440;5.644;2022-12-10T07:02:34;1.00;99.90
53294;DHT22;39181;53.440;5.644;2022-12-10T07:05:00;1.00;99.90
53294;DHT22;39181;53.440;5.644;2022-12-10T07:07:25;1.00;99.90
53294;DHT22;39181;53.440;5.644;2022-12-10T07:09:51;1.00;99.90
53294;DHT22;39181;53.440;5.644;2022-12-10T07:12:16;1.00;99.90
53294;DHT22;39181;53.440;5.644;2022-12-10T07:14:42;1.00;99.90
53294;DHT22;39181;53.440;5.644;2022-12-10T07:17:07;1.00;99.90
53294;DHT22;39181;53.440;5.644;2022-12-10T07:19:33;1.00;99.90
53294;DHT22;39181;53.440;5.644;2022-12-10T07:21:58;1.10;99.90
53294;DHT22;39181;53.440;5.644;2022-12-10T07:24:24;1.00;99.90
53294;DHT22;39181;53.440;5.644;2022-12-10T07:26:50;1.00;99.90
53294;DHT22;39181;53.440;5.644;2022-12-10T07:29:19;1.00;99.90
53294;DHT22;39181;53.440;5.644;2022-12-10T07:31:46;1.00;99.90
53294;DHT22;39181;53.440;5.644;2022-12-10T07:34:12;1.10;99.90
53294;DHT22;39181;53.440;5.644;2022-12-10T07:36:38;1.10;99.90
53294;DHT22;39181;53.440;5.644;2022-12-10T07:39:08;1.10;99.90
53294;DHT22;39181;53.440;5.644;2022-12-10T07:41:34;1.10;99.90
53294;DHT22;39181;53.440;5.644;2022-12-10T07:44:02;1.10;99.90
53294;DHT22;39181;53.440;5.644;2022-12-10T07:46:30;1.10;99.90
53294;DHT22;39181;53.440;5.644;2022-12-10T07:48:56;1.10;99.90
53294;DHT22;39181;53.440;5.644;2022-12-10T07:51:22;1.10;99.90
53294;DHT22;39181;53.440;5.644;2022-12-10T07:53:51;1.00;99.90
53294;DHT22;39181;53.440;5.644;2022-12-10T07:56:17;1.10;99.90
53294;DHT22;39181;53.440;5.644;2022-12-10T07:58:43;1.10;99.90
53294;DHT22;39181;53.440;5.644;2022-12-10T08:01:11;1.10;99.90
53294;DHT22;39181;53.440;5.644;2022-12-10T08:03:38;1.10;99.90
53294;DHT22;39181;53.440;5.644;2022-12-10T08:06:07;1.10;99.90
53294;DHT22;39181;53.440;5.644;2022-12-10T08:08:34;1.10;99.90
53294;DHT22;39181;53.440;5.644;2022-12-10T08:11:00;1.20;99.90
53294;DHT22;39181;53.440;5.644;2022-12-10T08:13:27;1.20;99.90
53294;DHT22;39181;53.440;5.644;2022-12-10T08:15:53;1.20;99.90
53294;DHT22;39181;53.440;5.644;2022-12-10T08:18:18;1.10;99.90
53294;DHT22;39181;53.440;5.644;2022-12-10T08:20:44;1.10;99.90
53294;DHT22;39181;53.440;5.644;2022-12-10T08:23:09;1.20;99.90
53294;DHT22;39181;53.440;5.644;2022-12-10T08:25:36;1.20;99.90
53294;DHT22;39181;53.440;5.644;2022-12-10T08:28:02;1.20;99.90
53294;DHT22;39181;53.440;5.644;2022-12-10T08:30:29;1.10;99.90
53294;DHT22;39181;53.440;5.644;2022-12-10T08:32:55;1.20;99.90
53294;DHT22;39181;53.440;5.644;2022-12-10T08:35:20;1.10;99.90
53294;DHT22;39181;53.440;5.644;2022-12-10T08:37:46;1.30;99.90
53294;DHT22;39181;53.440;5.644;2022-12-10T08:40:12;1.20;99.90
53294;DHT22;39181;53.440;5.644;2022-12-10T08:42:37;1.30;99.90
53294;DHT22;39181;53.440;5.644;2022-12-10T08:45:04;1.20;99.90
53294;DHT22;39181;53.440;5.644;2022-12-10T08:47:30;1.30;99.90
53294;DHT22;39181;53.440;5.644;2022-12-10T08:49:55;1.30;99.90
53294;DHT22;39181;53.440;5.644;2022-12-10T08:52:21;1.30;99.90
53294;DHT22;39181;53.440;5.644;2022-12-10T08:54:46;1.30;99.90
53294;DHT22;39181;53.440;5.644;2022-12-10T08:57:12;1.30;99.90
53294;DHT22;39181;53.440;5.644;2022-12-10T08:59:38;1.30;99.90
53294;DHT22;39181;53.440;5.644;2022-12-10T09:02:03;1.40;99.90
53294;DHT22;39181;53.440;5.644;2022-12-10T09:04:29;1.40;99.90
53294;DHT22;39181;53.440;5.644;2022-12-10T09:06:54;1.40;99.90
53294;DHT22;39181;53.440;5.644;2022-12-10T09:09:20;1.40;99.90
53294;DHT22;39181;53.440;5.644;2022-12-10T09:11:45;1.40;99.90
53294;DHT22;39181;53.440;5.644;2022-12-10T09:14:12;1.50;99.90
53294;DHT22;39181;53.440;5.644;2022-12-10T09:16:38;1.50;99.90
53294;DHT22;39181;53.440;5.644;2022-12-10T09:19:05;1.60;99.90
53294;DHT22;39181;53.440;5.644;2022-12-10T09:21:31;1.60;99.90
53294;DHT22;39181;53.440;5.644;2022-12-10T09:23:58;1.70;99.90
53294;DHT22;39181;53.440;5.644;2022-12-10T09:26:24;1.70;99.90
53294;DHT22;39181;53.440;5.644;2022-12-10T09:28:50;1.70;99.90
53294;DHT22;39181;53.440;5.644;2022-12-10T09:31:18;1.70;99.90
53294;DHT22;39181;53.440;5.644;2022-12-10T09:33:44;1.70;99.90
53294;DHT22;39181;53.440;5.644;2022-12-10T09:36:11;1.80;99.90
53294;DHT22;39181;53.440;5.644;2022-12-10T09:38:40;1.80;99.90
53294;DHT22;39181;53.440;5.644;2022-12-10T09:51:31;2.00;99.90
53294;DHT22;39181;53.440;5.644;2022-12-10T09:53:58;2.00;99.90
53294;DHT22;39181;53.440;5.644;2022-12-10T09:56:36;2.00;99.90
53294;DHT22;39181;53.440;5.644;2022-12-10T09:59:32;2.00;99.90
53294;DHT22;39181;53.440;5.644;2022-12-10T10:02:22;2.20;99.90
53294;DHT22;39181;53.440;5.644;2022-12-10T10:04:53;2.20;99.90
53294;DHT22;39181;53.440;5.644;2022-12-10T10:07:28;2.30;99.90
53294;DHT22;39181;53.440;5.644;2022-12-10T10:10:06;2.40;99.90
53294;DHT22;39181;53.440;5.644;2022-12-10T10:12:34;2.60;99.90
53294;DHT22;39181;53.440;5.644;2022-12-10T10:15:10;2.70;99.90
53294;DHT22;39181;53.440;5.644;2022-12-10T10:17:38;2.80;99.90
53294;DHT22;39181;53.440;5.644;2022-12-10T10:20:04;2.90;99.90
53294;DHT22;39181;53.440;5.644;2022-12-10T10:22:31;3.00;99.90
53294;DHT22;39181;53.440;5.644;2022-12-10T10:24:57;3.10;99.90
53294;DHT22;39181;53.440;5.644;2022-12-10T10:27:24;3.10;99.90
53294;DHT22;39181;53.440;5.644;2022-12-10T10:29:53;3.10;99.90
53294;DHT22;39181;53.440;5.644;2022-12-10T10:32:22;3.00;99.90
53294;DHT22;39181;53.440;5.644;2022-12-10T10:34:56;2.90;99.90
53294;DHT22;39181;53.440;5.644;2022-12-10T10:37:29;2.90;99.90
53294;DHT22;39181;53.440;5.644;2022-12-10T10:39:55;2.90;99.90
53294;DHT22;39181;53.440;5.644;2022-12-10T10:42:39;2.90;99.90
53294;DHT22;39181;53.440;5.644;2022-12-10T10:45:39;2.90;99.90
53294;DHT22;39181;53.440;5.644;2022-12-10T10:48:20;2.80;99.90
53294;DHT22;39181;53.440;5.644;2022-12-10T10:50:52;2.80;99.90
53294;DHT22;39181;53.440;5.644;2022-12-10T10:53:23;2.80;99.90
53294;DHT22;39181;53.440;5.644;2022-12-10T10:55:49;2.70;99.90
53294;DHT22;39181;53.440;5.644;2022-12-10T10:58:19;2.60;99.90
53294;DHT22;39181;53.440;5.644;2022-12-10T11:03:26;2.60;99.90
53294;DHT22;39181;53.440;5.644;2022-12-10T11:05:55;2.60;99.90
53294;DHT22;39181;53.440;5.644;2022-12-10T11:08:21;2.60;99.90
53294;DHT22;39181;53.440;5.644;2022-12-10T11:10:58;2.60;99.90
53294;DHT22;39181;53.440;5.644;2022-12-10T11:13:32;2.60;99.90
53294;DHT22;39181;53.440;5.644;2022-12-10T11:19:03;2.70;99.90
53294;DHT22;39181;53.440;5.644;2022-12-10T11:21:32;2.70;99.90
53294;DHT22;39181;53.440;5.644;2022-12-10T11:23:59;2.60;99.90
53294;DHT22;39181;53.440;5.644;2022-12-10T11:26:48;2.60;99.90
53294;DHT22;39181;53.440;5.644;2022-12-10T11:35:53;2.70;99.90
53294;DHT22;39181;53.440;5.644;2022-12-10T11:38:30;2.70;99.90
53294;DHT22;39181;53.440;5.644;2022-12-10T11:41:10;2.60;99.90
53294;DHT22;39181;53.440;5.644;2022-12-10T11:44:07;2.70;99.90
53294;DHT22;39181;53.440;5.644;2022-12-10T11:52:41;2.70;99.90
53294;DHT22;39181;53.440;5.644;2022-12-10T11:57:59;2.70;99.90
53294;DHT22;39181;53.440;5.644;2022-12-10T12:00:30;2.80;99.90
53294;DHT22;39181;53.440;5.644;2022-12-10T12:06:10;2.80;99.90
53294;DHT22;39181;53.440;5.644;2022-12-10T12:14:31;2.70;99.90
53294;DHT22;39181;53.440;5.644;2022-12-10T12:17:06;2.70;99.90
53294;DHT22;39181;53.440;5.644;2022-12-10T12:19:40;2.60;99.90
53294;DHT22;39181;53.440;5.644;2022-12-10T12:22:33;2.60;99.90
53294;DHT22;39181;53.440;5.644;2022-12-10T12:25:15;2.60;99.90
53294;DHT22;39181;53.440;5.644;2022-12-10T12:27:48;2.70;99.90
53294;DHT22;39181;53.440;5.644;2022-12-10T12:30:20;2.80;99.90
53294;DHT22;39181;53.440;5.644;2022-12-10T12:33:06;2.80;99.90
53294;DHT22;39181;53.440;5.644;2022-12-10T12:35:48;2.80;99.90
53294;DHT22;39181;53.440;5.644;2022-12-10T12:41:29;2.80;99.90
53294;DHT22;39181;53.440;5.644;2022-12-10T12:44:07;2.80;99.90
53294;DHT22;39181;53.440;5.644;2022-12-10T12:46:46;2.80;99.90
53294;DHT22;39181;53.440;5.644;2022-12-10T12:49:30;2.80;99.90
53294;DHT22;39181;53.440;5.644;2022-12-10T12:52:27;2.80;99.90
53294;DHT22;39181;53.440;5.644;2022-12-10T12:54:56;2.90;99.90
53294;DHT22;39181;53.440;5.644;2022-12-10T12:57:45;2.90;99.90
53294;DHT22;39181;53.440;5.644;2022-12-10T13:00:19;3.00;99.90
53294;DHT22;39181;53.440;5.644;2022-12-10T13:03:08;3.10;99.90
53294;DHT22;39181;53.440;5.644;2022-12-10T13:05:42;3.10;99.90
53294;DHT22;39181;53.440;5.644;2022-12-10T13:10:53;3.10;99.90
53294;DHT22;39181;53.440;5.644;2022-12-10T13:13:35;3.10;99.90
53294;DHT22;39181;53.440;5.644;2022-12-10T13:29:56;3.10;99.90
53294;DHT22;39181;53.440;5.644;2022-12-10T13:35:31;3.00;99.90
53294;DHT22;39181;53.440;5.644;2022-12-10T13:38:17;3.00;99.90
53294;DHT22;39181;53.440;5.644;2022-12-10T13:40:43;3.00;99.90
53294;DHT22;39181;53.440;5.644;2022-12-10T13:43:40;3.00;99.90
53294;DHT22;39181;53.440;5.644;2022-12-10T13:49:23;3.00;99.90
53294;DHT22;39181;53.440;5.644;2022-12-10T13:52:02;2.90;99.90
53294;DHT22;39181;53.440;5.644;2022-12-10T13:54:54;2.90;99.90
53294;DHT22;39181;53.440;5.644;2022-12-10T13:57:38;2.80;99.90
53294;DHT22;39181;53.440;5.644;2022-12-10T14:00:13;2.80;99.90
53294;DHT22;39181;53.440;5.644;2022-12-10T14:05:41;2.80;99.90
53294;DHT22;39181;53.440;5.644;2022-12-10T14:08:12;2.70;99.90
53294;DHT22;39181;53.440;5.644;2022-12-10T14:10:41;2.70;99.90
53294;DHT22;39181;53.440;5.644;2022-12-10T14:13:07;2.60;99.90
53294;DHT22;39181;53.440;5.644;2022-12-10T14:15:35;2.60;99.90
53294;DHT22;39181;53.440;5.644;2022-12-10T14:18:15;2.60;99.90
53294;DHT22;39181;53.440;5.644;2022-12-10T14:20:47;2.50;99.90
53294;DHT22;39181;53.440;5.644;2022-12-10T14:26:09;2.50;99.90
53294;DHT22;39181;53.440;5.644;2022-12-10T14:28:41;2.50;99.90
53294;DHT22;39181;53.440;5.644;2022-12-10T14:31:13;2.50;99.90
53294;DHT22;39181;53.440;5.644;2022-12-10T14:33:40;2.50;99.90
53294;DHT22;39181;53.440;5.644;2022-12-10T14:36:06;2.50;99.90
53294;DHT22;39181;53.440;5.644;2022-12-10T14:38:33;2.50;99.90
53294;DHT22;39181;53.440;5.644;2022-12-10T14:41:00;2.40;99.90
53294;DHT22;39181;53.440;5.644;2022-12-10T14:43:36;2.40;99.90
53294;DHT22;39181;53.440;5.644;2022-12-10T14:46:04;2.30;99.90
53294;DHT22;39181;53.440;5.644;2022-12-10T14:48:30;2.30;99.90
53294;DHT22;39181;53.440;5.644;2022-12-10T14:51:03;2.30;99.90
53294;DHT22;39181;53.440;5.644;2022-12-10T14:53:28;2.30;99.90
53294;DHT22;39181;53.440;5.644;2022-12-10T14:56:02;2.20;99.90
53294;DHT22;39181;53.440;5.644;2022-12-10T14:58:51;2.20;99.90
53294;DHT22;39181;53.440;5.644;2022-12-10T15:01:28;2.20;99.90
53294;DHT22;39181;53.440;5.644;2022-12-10T15:03:58;2.30;99.90
53294;DHT22;39181;53.440;5.644;2022-12-10T15:06:24;2.30;99.90
53294;DHT22;39181;53.440;5.644;2022-12-10T15:08:54;2.20;99.90
53294;DHT22;39181;53.440;5.644;2022-12-10T15:11:20;2.20;99.90
53294;DHT22;39181;53.440;5.644;2022-12-10T15:13:49;2.20;99.90
53294;DHT22;39181;53.440;5.644;2022-12-10T15:18:53;2.20;99.90
53294;DHT22;39181;53.440;5.644;2022-12-10T15:21:22;2.10;99.90
53294;DHT22;39181;53.440;5.644;2022-12-10T15:23:49;2.10;99.90
53294;DHT22;39181;53.440;5.644;2022-12-10T15:26:22;2.10;99.90
53294;DHT22;39181;53.440;5.644;2022-12-10T15:28:51;2.10;99.90
53294;DHT22;39181;53.440;5.644;2022-12-10T15:34:00;2.10;99.90
53294;DHT22;39181;53.440;5.644;2022-12-10T15:36:37;2.10;99.90
53294;DHT22;39181;53.440;5.644;2022-12-10T15:39:20;2.00;99.90
53294;DHT22;39181;53.440;5.644;2022-12-10T15:42:07;2.00;99.90
53294;DHT22;39181;53.440;5.644;2022-12-10T15:44:40;1.90;99.90
53294;DHT22;39181;53.440;5.644;2022-12-10T15:47:26;2.00;99.90
53294;DHT22;39181;53.440;5.644;2022-12-10T15:49:54;2.00;99.90
53294;DHT22;39181;53.440;5.644;2022-12-10T15:52:25;2.00;99.90
53294;DHT22;39181;53.440;5.644;2022-12-10T15:54:53;2.00;99.90
53294;DHT22;39181;53.440;5.644;2022-12-10T15:57:30;1.90;99.90
53294;DHT22;39181;53.440;5.644;2022-12-10T16:00:02;1.90;99.90
53294;DHT22;39181;53.440;5.644;2022-12-10T16:02:49;1.90;99.90
53294;DHT22;39181;53.440;5.644;2022-12-10T16:05:27;1.90;99.90
53294;DHT22;39181;53.440;5.644;2022-12-10T16:08:00;1.90;99.90
53294;DHT22;39181;53.440;5.644;2022-12-10T16:10:27;1.90;99.90
53294;DHT22;39181;53.440;5.644;2022-12-10T16:12:59;1.90;99.90
53294;DHT22;39181;53.440;5.644;2022-12-10T16:15:27;1.90;99.90
53294;DHT22;39181;53.440;5.644;2022-12-10T16:17:53;1.90;99.90
53294;DHT22;39181;53.440;5.644;2022-12-10T16:20:25;1.80;99.90
53294;DHT22;39181;53.440;5.644;2022-12-10T16:22:52;1.80;99.90
53294;DHT22;39181;53.440;5.644;2022-12-10T16:25:18;1.80;99.90
53294;DHT22;39181;53.440;5.644;2022-12-10T16:27:44;1.80;99.90
53294;DHT22;39181;53.440;5.644;2022-12-10T16:30:16;1.80;99.90
53294;DHT22;39181;53.440;5.644;2022-12-10T16:32:41;1.80;99.90
53294;DHT22;39181;53.440;5.644;2022-12-10T16:35:07;1.80;99.90
53294;DHT22;39181;53.440;5.644;2022-12-10T16:37:33;1.80;99.90
53294;DHT22;39181;53.440;5.644;2022-12-10T16:39:58;1.90;99.90
53294;DHT22;39181;53.440;5.644;2022-12-10T16:42:24;1.80;99.90
53294;DHT22;39181;53.440;5.644;2022-12-10T16:44:50;1.80;99.90
53294;DHT22;39181;53.440;5.644;2022-12-10T16:47:15;1.90;99.90
53294;DHT22;39181;53.440;5.644;2022-12-10T16:49:41;1.80;99.90
53294;DHT22;39181;53.440;5.644;2022-12-10T16:52:10;1.80;99.90
53294;DHT22;39181;53.440;5.644;2022-12-10T16:54:36;1.80;99.90
53294;DHT22;39181;53.440;5.644;2022-12-10T16:57:07;1.80;99.90
53294;DHT22;39181;53.440;5.644;2022-12-10T16:59:35;1.90;99.90
53294;DHT22;39181;53.440;5.644;2022-12-10T17:02:00;1.90;99.90
53294;DHT22;39181;53.440;5.644;2022-12-10T17:04:26;1.80;99.90
53294;DHT22;39181;53.440;5.644;2022-12-10T17:06:51;1.90;99.90
53294;DHT22;39181;53.440;5.644;2022-12-10T17:09:18;1.80;99.90
53294;DHT22;39181;53.440;5.644;2022-12-10T17:11:44;1.80;99.90
53294;DHT22;39181;53.440;5.644;2022-12-10T17:16:40;1.90;99.90
53294;DHT22;39181;53.440;5.644;2022-12-10T17:19:08;1.90;99.90
53294;DHT22;39181;53.440;5.644;2022-12-10T17:21:33;1.80;99.90
53294;DHT22;39181;53.440;5.644;2022-12-10T17:23:59;1.90;99.90
53294;DHT22;39181;53.440;5.644;2022-12-10T17:26:30;1.90;99.90
53294;DHT22;39181;53.440;5.644;2022-12-10T17:31:40;1.80;99.90
53294;DHT22;39181;53.440;5.644;2022-12-10T17:34:06;1.90;99.90
53294;DHT22;39181;53.440;5.644;2022-12-10T17:36:32;1.80;99.90
53294;DHT22;39181;53.440;5.644;2022-12-10T17:38:58;1.80;99.90